Steilacoom, Washington
Current Conditions -  °F | °C
As of 1:58 AM on Friday 31 Oct 2014 (Local Time) from KTCM Reporting Station
Light Rain Light Rain  
Wind Chill: 52°   Ceiling: 4100
Heat Index: 52°   Visibility: 7mi
Dew Point: 52°   Wind: 2mph
Humidity: 99%   Direction: 110°ESE
Pressure: 29.76"   Gusts: NA
Location:  47.17°N, 122.59°W
Report Text: KTCM 310858Z AUTO 11002KT 7SM -RA OVC041 11/11 A2976 RMK AO2 SLP081 P0004 60018 T01110109 57008 CHINO RWY34 $
Loading
Personal Weather Stations






























Interactive Weather Map
Tropical Storm Tracking
New forecast layout! Learn more

10-Day Weather Forecast

Advertisements
Track Severe Weather on mobile